createdAt,value
2018-04-10T00:01:04.336Z,0
2018-04-10T00:02:12.389Z,0
2018-04-10T00:03:20.459Z,0
2018-04-10T00:04:28.526Z,0
2018-04-10T00:05:36.587Z,0
2018-04-10T00:06:44.652Z,0
2018-04-10T00:07:52.725Z,0
2018-04-10T00:09:00.773Z,0
2018-04-10T00:10:08.850Z,0
2018-04-10T00:11:16.905Z,0
2018-04-10T00:12:24.971Z,0
2018-04-10T00:13:33.034Z,0
2018-04-10T00:14:41.061Z,0
2018-04-10T00:15:49.154Z,0
2018-04-10T00:16:57.229Z,0
2018-04-10T00:18:05.275Z,0
2018-04-10T00:19:13.343Z,0
2018-04-10T00:20:21.383Z,0
2018-04-10T00:21:29.487Z,0
2018-04-10T00:22:37.539Z,0
2018-04-10T00:23:45.604Z,0
2018-04-10T00:24:53.677Z,0
2018-04-10T00:26:01.708Z,0
2018-04-10T00:27:09.795Z,0
2018-04-10T00:28:17.846Z,0
2018-04-10T00:29:25.928Z,0
2018-04-10T00:30:33.975Z,0
2018-04-10T00:31:42.045Z,0
2018-04-10T00:32:50.110Z,0
2018-04-10T00:33:58.166Z,0
2018-04-10T00:35:06.233Z,0
2018-04-10T00:36:14.303Z,0
2018-04-10T00:37:22.362Z,0
2018-04-10T00:38:30.421Z,0
2018-04-10T00:39:38.492Z,0
2018-04-10T00:40:46.549Z,0
2018-04-10T00:41:54.624Z,0
2018-04-10T00:43:02.676Z,0
2018-04-10T00:44:10.716Z,0
2018-04-10T00:45:18.807Z,0
2018-04-10T00:46:26.894Z,0
2018-04-10T00:47:34.932Z,0
2018-04-10T00:48:42.996Z,0
2018-04-10T00:49:51.028Z,0
2018-04-10T00:50:59.115Z,0
2018-04-10T00:52:07.190Z,0
2018-04-10T00:53:15.247Z,0
2018-04-10T00:54:23.296Z,0
2018-04-10T00:55:31.336Z,0
2018-04-10T00:56:39.433Z,0
2018-04-10T00:57:47.481Z,0
2018-04-10T00:58:55.554Z,0
2018-04-10T01:00:03.630Z,0
2018-04-10T01:01:11.666Z,0
2018-04-10T01:02:19.741Z,0
2018-04-10T01:03:27.830Z,0
2018-04-10T01:04:35.879Z,0
2018-04-10T01:05:43.925Z,0
2018-04-10T01:06:52.003Z,0
2018-04-10T01:08:00.055Z,0
2018-04-10T01:09:08.136Z,0
2018-04-10T01:10:16.173Z,0
2018-04-10T01:11:24.269Z,0
2018-04-10T01:12:32.314Z,0
2018-04-10T01:13:40.372Z,0
2018-04-10T01:14:48.444Z,0
2018-04-10T01:15:56.493Z,0
2018-04-10T01:17:04.569Z,0
2018-04-10T01:18:12.624Z,0
2018-04-10T01:19:20.689Z,0
2018-04-10T01:20:28.748Z,0
2018-04-10T01:21:36.815Z,0
2018-04-10T01:22:44.866Z,0
2018-04-10T01:23:52.929Z,0
2018-04-10T01:25:00.969Z,0
2018-04-10T01:26:09.065Z,0
2018-04-10T01:27:17.129Z,0
2018-04-10T01:28:25.184Z,0
2018-04-10T01:29:33.249Z,0
2018-04-10T01:30:41.296Z,0
2018-04-10T01:31:49.366Z,0
2018-04-10T01:32:57.435Z,0
2018-04-10T01:34:05.495Z,0
2018-04-10T01:35:13.567Z,0
2018-04-10T01:36:21.597Z,0
2018-04-10T01:37:29.692Z,0
2018-04-10T01:38:37.760Z,0
2018-04-10T01:39:45.821Z,0
2018-04-10T01:40:53.869Z,0
2018-04-10T01:42:01.942Z,0
2018-04-10T01:43:10.006Z,0
2018-04-10T01:44:18.064Z,0
2018-04-10T01:45:26.148Z,0
2018-04-10T01:46:34.201Z,0
2018-04-10T01:47:42.262Z,0
2018-04-10T01:48:50.332Z,0
2018-04-10T01:49:58.377Z,0
2018-04-10T01:51:06.448Z,0
2018-04-10T01:52:14.519Z,0
2018-04-10T01:53:22.572Z,0
2018-04-10T01:54:30.644Z,0
2018-04-10T01:55:38.696Z,0
2018-04-10T01:56:46.755Z,0
2018-04-10T01:57:54.829Z,0
2018-04-10T01:59:02.885Z,0
2018-04-10T02:00:10.964Z,0
2018-04-10T02:01:18.994Z,0
2018-04-10T02:02:27.088Z,0
2018-04-10T02:03:35.148Z,0
2018-04-10T02:04:43.202Z,0
2018-04-10T02:05:51.234Z,0
2018-04-10T02:06:59.334Z,0
2018-04-10T02:08:07.389Z,0
2018-04-10T02:09:15.453Z,0
2018-04-10T02:10:23.516Z,0
2018-04-10T02:11:31.544Z,0
2018-04-10T02:12:39.672Z,0
2018-04-10T02:13:47.730Z,0
2018-04-10T02:14:55.752Z,0
2018-04-10T02:16:03.828Z,0
2018-04-10T02:17:11.884Z,0
2018-04-10T02:18:19.970Z,0
2018-04-10T02:19:28.018Z,0
2018-04-10T02:20:36.072Z,0
2018-04-10T02:21:44.142Z,0
2018-04-10T02:22:52.212Z,0
2018-04-10T02:24:00.272Z,0
2018-04-10T02:25:08.412Z,0
2018-04-10T02:26:16.401Z,0
2018-04-10T02:27:24.469Z,0
2018-04-10T02:28:32.533Z,0
2018-04-10T02:29:40.587Z,0
2018-04-10T02:30:48.656Z,0
2018-04-10T02:31:56.719Z,0
2018-04-10T02:33:04.779Z,0
2018-04-10T02:34:12.837Z,0
2018-04-10T02:35:20.892Z,0
2018-04-10T02:36:28.971Z,0
2018-04-10T02:37:37.022Z,0
2018-04-10T02:38:45.120Z,0
2018-04-10T02:39:53.151Z,0
2018-04-10T02:41:01.186Z,0
2018-04-10T02:42:09.290Z,0
2018-04-10T02:43:17.351Z,0
2018-04-10T02:44:25.414Z,0
2018-04-10T02:45:33.470Z,0
2018-04-10T02:46:41.497Z,0
2018-04-10T02:47:49.596Z,0
2018-04-10T02:48:57.646Z,0
2018-04-10T02:50:05.710Z,0
2018-04-10T02:51:13.781Z,0
2018-04-10T02:52:21.833Z,0
2018-04-10T02:53:29.914Z,0
2018-04-10T02:54:37.967Z,0
2018-04-10T02:55:46.031Z,0
2018-04-10T02:56:54.097Z,0
2018-04-10T02:58:02.146Z,0
2018-04-10T02:59:10.213Z,0
2018-04-10T03:00:18.271Z,0
2018-04-10T03:01:26.349Z,0
2018-04-10T03:02:34.421Z,0
2018-04-10T03:03:42.459Z,0
2018-04-10T03:04:50.521Z,0
2018-04-10T03:05:58.592Z,0
2018-04-10T03:07:06.660Z,0
2018-04-10T03:08:14.733Z,0
2018-04-10T03:09:22.778Z,0
2018-04-10T03:10:30.824Z,0
2018-04-10T03:11:38.903Z,0
2018-04-10T03:12:46.978Z,0
2018-04-10T03:13:55.018Z,0
2018-04-10T03:15:03.097Z,0
2018-04-10T03:16:11.124Z,0
2018-04-10T03:17:19.210Z,0
2018-04-10T03:18:27.272Z,0
2018-04-10T03:19:35.337Z,0
2018-04-10T03:20:43.428Z,0
2018-04-10T03:21:51.433Z,0
2018-04-10T03:22:59.515Z,0
2018-04-10T03:24:07.588Z,0
2018-04-10T03:25:15.638Z,0
2018-04-10T03:26:23.709Z,0
2018-04-10T03:27:31.767Z,0
2018-04-10T03:28:39.871Z,0
2018-04-10T03:29:47.891Z,0
2018-04-10T03:30:55.958Z,0
2018-04-10T03:32:04.042Z,0
2018-04-10T03:33:12.088Z,0
2018-04-10T03:34:20.143Z,0
2018-04-10T03:35:28.206Z,0
2018-04-10T03:36:36.254Z,0
2018-04-10T03:37:44.334Z,0
2018-04-10T03:38:52.400Z,0
2018-04-10T03:40:00.450Z,0
2018-04-10T03:41:08.520Z,0
2018-04-10T03:42:16.567Z,0
2018-04-10T03:43:24.636Z,0
2018-04-10T03:44:32.688Z,0
2018-04-10T03:45:40.758Z,0
2018-04-10T03:46:48.822Z,0
2018-04-10T03:47:56.934Z,0
2018-04-10T03:49:04.932Z,0
2018-04-10T03:50:13.010Z,0
2018-04-10T03:51:21.042Z,0
2018-04-10T03:52:29.121Z,0
2018-04-10T03:53:37.187Z,0
2018-04-10T03:54:45.259Z,0
2018-04-10T03:55:53.345Z,0
2018-04-10T03:57:01.392Z,0
2018-04-10T03:58:09.445Z,0
2018-04-10T03:59:17.498Z,0
2018-04-10T04:00:25.554Z,0
2018-04-10T04:01:33.618Z,0
2018-04-10T04:02:41.659Z,0
2018-04-10T04:03:49.746Z,0
2018-04-10T04:04:57.809Z,0
2018-04-10T04:06:05.874Z,0
2018-04-10T04:07:13.931Z,0
2018-04-10T04:08:22.004Z,0
2018-04-10T04:09:30.045Z,0
2018-04-10T04:10:38.115Z,0
2018-04-10T04:11:46.172Z,0
2018-04-10T04:12:54.234Z,0
2018-04-10T04:14:02.292Z,0
2018-04-10T04:15:10.365Z,4
2018-04-10T04:16:18.410Z,4
2018-04-10T04:17:26.479Z,0
2018-04-10T04:18:34.546Z,4
2018-04-10T04:19:42.610Z,4
2018-04-10T04:20:50.663Z,8
2018-04-10T04:21:58.761Z,8
2018-04-10T04:23:06.783Z,8
2018-04-10T04:24:14.847Z,12
2018-04-10T04:25:22.932Z,12
2018-04-10T04:26:30.952Z,16
2018-04-10T04:27:39.048Z,16
2018-04-10T04:28:47.099Z,20
2018-04-10T04:29:55.429Z,28
2018-04-10T04:31:03.235Z,32
2018-04-10T04:32:11.881Z,36
2018-04-10T04:33:19.359Z,44
2018-04-10T04:34:27.870Z,52
2018-04-10T04:35:35.475Z,60
2018-04-10T04:36:43.535Z,72
2018-04-10T04:37:51.573Z,80
2018-04-10T04:38:59.662Z,96
2018-04-10T04:40:07.733Z,108
2018-04-10T04:41:15.954Z,128
2018-04-10T04:42:24.471Z,144
2018-04-10T04:43:31.913Z,164
2018-04-10T04:44:39.979Z,180
2018-04-10T04:45:48.051Z,192
2018-04-10T04:46:56.104Z,212
2018-04-10T04:48:04.164Z,236
2018-04-10T04:49:12.231Z,264
2018-04-10T04:50:20.282Z,292
2018-04-10T04:51:28.388Z,324
2018-04-10T04:52:36.420Z,360
2018-04-10T04:53:44.484Z,396
2018-04-10T04:54:52.537Z,436
2018-04-10T04:56:00.605Z,476
2018-04-10T04:57:08.680Z,516
2018-04-10T04:58:16.730Z,560
2018-04-10T04:59:24.900Z,616
2018-04-10T05:00:32.967Z,676
2018-04-10T05:01:40.912Z,736
2018-04-10T05:02:48.981Z,800
2018-04-10T05:03:57.049Z,868
2018-04-10T05:05:05.099Z,944
2018-04-10T05:06:13.167Z,1016
2018-04-10T05:07:21.206Z,1096
2018-04-10T05:08:29.305Z,1176
2018-04-10T05:09:37.355Z,1264
2018-04-10T05:10:45.428Z,1348
2018-04-10T05:11:53.536Z,1428
2018-04-10T05:13:01.516Z,1508
2018-04-10T05:14:09.607Z,1572
2018-04-10T05:15:17.667Z,1640
2018-04-10T05:16:25.739Z,1708
2018-04-10T05:17:33.802Z,1772
2018-04-10T05:18:41.845Z,1828
2018-04-10T05:19:49.925Z,1884
2018-04-10T05:20:57.980Z,1940
2018-04-10T05:22:06.055Z,1996
2018-04-10T05:23:14.121Z,2052
2018-04-10T05:24:22.172Z,2108
2018-04-10T05:25:30.243Z,2168
2018-04-10T05:26:38.305Z,2220
2018-04-10T05:27:46.396Z,2272
2018-04-10T05:28:54.415Z,2324
2018-04-10T05:30:02.497Z,2384
2018-04-10T05:31:10.579Z,2452
2018-04-10T05:32:18.612Z,2528
2018-04-10T05:33:26.680Z,2608
2018-04-10T05:34:34.734Z,2696
2018-04-10T05:35:42.811Z,2780
2018-04-10T05:36:50.849Z,2872
2018-04-10T05:37:58.924Z,2960
2018-04-10T05:39:06.994Z,3040
2018-04-10T05:40:15.049Z,3132
2018-04-10T05:41:23.111Z,3240
2018-04-10T05:42:31.159Z,3368
2018-04-10T05:43:39.246Z,3496
2018-04-10T05:44:47.315Z,3636
2018-04-10T05:45:55.370Z,3784
2018-04-10T05:47:03.453Z,3940
2018-04-10T05:48:11.477Z,4096
2018-04-10T05:49:19.562Z,4256
2018-04-10T05:50:27.628Z,4408
2018-04-10T05:51:35.681Z,4548
2018-04-10T05:52:43.746Z,4684
2018-04-10T05:53:51.803Z,4820
2018-04-10T05:54:59.882Z,4944
2018-04-10T05:56:07.947Z,5056
2018-04-10T05:57:16.005Z,5160
2018-04-10T05:58:24.065Z,5236
2018-04-10T05:59:32.115Z,5372
2018-04-10T06:00:40.197Z,5544
2018-04-10T06:01:48.261Z,5704
2018-04-10T06:02:56.324Z,5796
2018-04-10T06:04:04.391Z,5892
2018-04-10T06:05:12.447Z,6052
2018-04-10T06:06:20.499Z,6148
2018-04-10T06:07:28.564Z,6256
2018-04-10T06:08:36.630Z,6304
2018-04-10T06:09:44.730Z,6488
2018-04-10T06:10:52.782Z,6612
2018-04-10T06:12:00.808Z,6576
2018-04-10T06:13:08.903Z,6772
2018-04-10T06:14:16.957Z,6936
2018-04-10T06:15:25.012Z,7132
2018-04-10T06:16:33.074Z,7180
2018-04-10T06:17:41.123Z,7344
2018-04-10T06:18:49.227Z,7464
2018-04-10T06:19:57.280Z,7616
2018-04-10T06:21:05.352Z,7816
2018-04-10T06:22:13.414Z,7968
2018-04-10T06:23:21.443Z,8116
2018-04-10T06:24:29.530Z,8092
2018-04-10T06:25:37.612Z,8604
2018-04-10T06:26:45.661Z,9308
2018-04-10T06:27:53.733Z,9292
2018-04-10T06:29:01.796Z,9404
2018-04-10T06:30:09.869Z,9528
2018-04-10T06:31:17.930Z,9212
2018-04-10T06:32:26.003Z,9280
2018-04-10T06:33:34.049Z,9548
2018-04-10T06:34:42.122Z,10036
2018-04-10T06:35:50.183Z,10292
2018-04-10T06:36:58.255Z,10068
2018-04-10T06:38:06.314Z,9876
2018-04-10T06:39:14.377Z,9544
2018-04-10T06:40:22.452Z,9592
2018-04-10T06:41:30.516Z,9768
2018-04-10T06:42:38.573Z,9944
2018-04-10T06:43:46.652Z,9776
2018-04-10T06:44:54.739Z,9868
2018-04-10T06:46:02.784Z,10128
2018-04-10T06:47:10.843Z,10248
2018-04-10T06:48:18.940Z,10368
2018-04-10T06:49:26.972Z,10124
2018-04-10T06:50:35.052Z,9904
2018-04-10T06:51:43.110Z,10168
2018-04-10T06:52:51.184Z,10752
2018-04-10T06:53:59.229Z,10968
2018-04-10T06:55:07.311Z,11308
2018-04-10T06:56:15.377Z,11212
2018-04-10T06:57:23.477Z,11472
2018-04-10T06:58:31.483Z,11588
2018-04-10T06:59:39.554Z,12008
2018-04-10T07:00:47.646Z,12184
2018-04-10T07:01:55.698Z,14084
2018-04-10T07:03:03.779Z,13660
2018-04-10T07:04:11.823Z,14948
2018-04-10T07:05:19.904Z,16032
2018-04-10T07:06:27.982Z,14964
2018-04-10T07:07:36.045Z,14492
2018-04-10T07:08:44.097Z,14276
2018-04-10T07:09:52.180Z,14656
2018-04-10T07:11:00.238Z,14704
2018-04-10T07:12:08.323Z,14976
2018-04-10T07:13:16.402Z,12572
2018-04-10T07:14:24.448Z,11884
2018-04-10T07:15:32.506Z,11848
2018-04-10T07:16:40.581Z,11884
2018-04-10T07:17:48.651Z,11988
2018-04-10T07:18:56.722Z,12088
2018-04-10T07:20:04.783Z,12204
2018-04-10T07:21:12.854Z,12204
2018-04-10T07:22:20.902Z,12188
2018-04-10T07:23:28.978Z,12184
2018-04-10T07:24:37.055Z,12532
2018-04-10T07:25:45.104Z,14024
2018-04-10T07:26:53.187Z,14956
2018-04-10T07:28:01.225Z,16092
2018-04-10T07:29:09.328Z,17600
2018-04-10T07:30:17.391Z,18400
2018-04-10T07:31:25.469Z,15116
2018-04-10T07:32:33.524Z,13416
2018-04-10T07:33:41.573Z,13088
2018-04-10T07:34:49.667Z,15988
2018-04-10T07:35:57.738Z,19552
2018-04-10T07:37:05.801Z,20000
2018-04-10T07:38:13.863Z,21696
2018-04-10T07:39:21.945Z,18848
2018-04-10T07:40:29.993Z,16336
2018-04-10T07:41:38.074Z,16844
2018-04-10T07:42:46.143Z,17280
2018-04-10T07:43:54.214Z,15224
2018-04-10T07:45:02.282Z,19360
2018-04-10T07:46:10.351Z,24768
2018-04-10T07:47:18.414Z,28736
2018-04-10T07:48:26.491Z,27392
2018-04-10T07:49:34.550Z,27200
2018-04-10T07:50:42.627Z,27008
2018-04-10T07:51:50.698Z,22336
2018-04-10T07:52:58.751Z,20256
2018-04-10T07:54:06.822Z,28544
2018-04-10T07:55:14.903Z,29568
2018-04-10T07:56:22.969Z,37632
2018-04-10T07:57:31.019Z,36000
2018-04-10T07:58:39.109Z,30272
2018-04-10T07:59:47.186Z,28992
2018-04-10T08:00:55.250Z,44288
2018-04-10T08:02:03.306Z,41088
2018-04-10T08:03:11.360Z,24480
2018-04-10T08:04:19.472Z,29600
2018-04-10T08:05:27.536Z,18656
2018-04-10T08:06:35.605Z,13128
2018-04-10T08:07:43.678Z,15984
2018-04-10T08:08:51.722Z,22560
2018-04-10T08:09:59.821Z,25568
2018-04-10T08:11:07.896Z,24192
2018-04-10T08:12:15.956Z,27104
2018-04-10T08:13:24.038Z,27840
2018-04-10T08:14:32.109Z,28256
2018-04-10T08:15:40.163Z,35200
2018-04-10T08:16:48.246Z,33152
2018-04-10T08:17:56.304Z,29984
2018-04-10T08:19:04.378Z,24224
2018-04-10T08:20:12.445Z,20576
2018-04-10T08:21:20.513Z,22912
2018-04-10T08:22:28.595Z,34656
2018-04-10T08:23:36.670Z,31392
2018-04-10T08:24:44.756Z,26560
2018-04-10T08:25:52.817Z,19072
2018-04-10T08:27:00.873Z,20768
2018-04-10T08:28:08.951Z,25824
2018-04-10T08:29:17.035Z,28320
2018-04-10T08:30:25.096Z,36608
2018-04-10T08:31:33.165Z,42176
2018-04-10T08:32:41.206Z,42400
2018-04-10T08:33:49.312Z,40896
2018-04-10T08:34:57.373Z,43776
2018-04-10T08:36:05.447Z,38752
2018-04-10T08:37:13.527Z,39264
2018-04-10T08:38:21.567Z,41728
2018-04-10T08:39:29.662Z,43296
2018-04-10T08:40:37.733Z,48736
2018-04-10T08:41:45.812Z,50688
2018-04-10T08:42:53.868Z,53888
2018-04-10T08:44:01.954Z,52960
2018-04-10T08:45:10.014Z,52288
2018-04-10T08:46:18.085Z,57888
2018-04-10T08:47:26.168Z,60736
2018-04-10T08:48:34.245Z,61824
2018-04-10T08:49:42.307Z,32640
2018-04-10T08:50:50.372Z,10284
2018-04-10T08:51:58.454Z,9580
2018-04-10T08:53:06.527Z,9372
2018-04-10T08:54:14.626Z,9164
2018-04-10T08:55:22.664Z,8968
2018-04-10T08:56:30.727Z,8740
2018-04-10T08:57:38.811Z,8444
2018-04-10T08:58:46.882Z,8208
2018-04-10T08:59:54.952Z,7996
2018-04-10T09:01:03.016Z,7844
2018-04-10T09:02:11.111Z,7680
2018-04-10T09:03:19.176Z,7544
2018-04-10T09:04:27.233Z,7428
2018-04-10T09:05:35.337Z,7308
2018-04-10T09:06:43.390Z,7300
2018-04-10T09:07:51.449Z,7468
2018-04-10T09:08:59.506Z,7568
2018-04-10T09:10:07.589Z,7672
2018-04-10T09:11:15.653Z,7736
2018-04-10T09:12:23.720Z,7812
2018-04-10T09:13:31.859Z,7892
2018-04-10T09:14:39.864Z,7912
2018-04-10T09:15:47.932Z,7800
2018-04-10T09:16:56.007Z,7928
2018-04-10T09:18:04.073Z,8128
2018-04-10T09:19:12.125Z,8272
2018-04-10T09:20:20.205Z,8440
2018-04-10T09:21:28.286Z,8664
2018-04-10T09:22:36.345Z,8952
2018-04-10T09:23:44.407Z,9320
2018-04-10T09:24:52.489Z,9468
2018-04-10T09:26:00.564Z,9864
2018-04-10T09:27:08.626Z,10380
2018-04-10T09:28:16.695Z,10864
2018-04-10T09:29:24.767Z,11344
2018-04-10T09:30:32.827Z,11764
2018-04-10T09:31:40.882Z,12292
2018-04-10T09:32:48.967Z,12736
2018-04-10T09:33:57.040Z,13360
2018-04-10T09:35:05.116Z,13812
2018-04-10T09:36:13.174Z,13984
2018-04-10T09:37:21.219Z,14020
2018-04-10T09:38:29.303Z,13760
2018-04-10T09:39:37.382Z,13436
2018-04-10T09:40:45.460Z,12988
2018-04-10T09:41:53.518Z,12632
2018-04-10T09:43:01.566Z,12232
2018-04-10T09:44:09.655Z,11852
2018-04-10T09:45:17.716Z,11420
2018-04-10T09:46:25.801Z,11016
2018-04-10T09:47:33.853Z,10616
2018-04-10T09:48:41.935Z,10236
2018-04-10T09:49:50.012Z,9836
2018-04-10T09:50:58.083Z,9336
2018-04-10T09:52:06.152Z,8608
2018-04-10T09:53:14.200Z,8288
2018-04-10T09:54:22.286Z,7984
2018-04-10T09:55:30.362Z,7516
2018-04-10T09:56:38.425Z,7404
2018-04-10T09:57:46.490Z,6892
2018-04-10T09:58:54.561Z,7508
2018-04-10T10:00:02.640Z,7976
2018-04-10T10:01:10.696Z,8140
2018-04-10T10:02:18.768Z,9564
2018-04-10T10:03:26.849Z,10284
2018-04-10T10:04:34.927Z,10604
2018-04-10T10:05:42.971Z,10768
2018-04-10T10:06:51.033Z,10668
2018-04-10T10:07:59.122Z,10344
2018-04-10T10:09:07.193Z,9940
2018-04-10T10:10:15.254Z,9468
2018-04-10T10:11:23.344Z,8972
2018-04-10T10:12:31.374Z,8408
2018-04-10T10:13:39.457Z,7928
2018-04-10T10:14:47.535Z,7592
2018-04-10T10:15:55.597Z,7372
2018-04-10T10:17:03.674Z,7148
2018-04-10T10:18:11.742Z,6980
2018-04-10T10:19:19.819Z,6840
2018-04-10T10:20:27.889Z,6688
2018-04-10T10:21:35.952Z,6484
2018-04-10T10:22:44.012Z,6408
2018-04-10T10:23:52.100Z,6380
2018-04-10T10:25:00.163Z,6404
2018-04-10T10:26:08.235Z,6388
2018-04-10T10:27:16.306Z,6428
2018-04-10T10:28:24.372Z,6496
2018-04-10T10:29:32.450Z,6568
2018-04-10T10:30:40.506Z,6836
2018-04-10T10:31:48.592Z,6820
2018-04-10T10:32:56.659Z,6592
2018-04-10T10:34:04.710Z,6336
2018-04-10T10:35:12.803Z,6292
2018-04-10T10:36:20.847Z,6216
2018-04-10T10:37:28.936Z,6004
2018-04-10T10:38:37.004Z,6152
2018-04-10T10:39:45.064Z,6008
2018-04-10T10:40:53.147Z,6224
2018-04-10T10:42:01.191Z,6380
2018-04-10T10:43:09.282Z,6076
2018-04-10T10:44:17.354Z,6044
2018-04-10T10:45:25.426Z,5708
2018-04-10T10:46:33.500Z,5732
2018-04-10T10:47:41.536Z,5960
2018-04-10T10:48:49.616Z,6656
2018-04-10T10:49:57.701Z,6528
2018-04-10T10:51:05.766Z,5508
2018-04-10T10:52:13.845Z,5512
2018-04-10T10:53:21.906Z,5816
2018-04-10T10:54:29.975Z,6468
2018-04-10T10:55:38.061Z,7380
2018-04-10T10:56:46.131Z,6784
2018-04-10T10:57:54.201Z,6024
2018-04-10T10:59:02.271Z,5596
2018-04-10T11:00:10.336Z,5524
2018-04-10T11:01:18.408Z,5520
2018-04-10T11:02:26.483Z,5536
2018-04-10T11:03:34.537Z,5528
2018-04-10T11:04:42.612Z,5476
2018-04-10T11:05:50.680Z,5472
2018-04-10T11:06:58.754Z,5476
2018-04-10T11:08:06.829Z,5468
2018-04-10T11:09:14.910Z,5460
2018-04-10T11:10:22.959Z,5656
2018-04-10T11:11:31.006Z,6184
2018-04-10T11:12:39.107Z,7248
2018-04-10T11:13:47.168Z,8324
2018-04-10T11:14:55.258Z,8740
2018-04-10T11:16:03.316Z,8632
2018-04-10T11:17:11.372Z,8712
2018-04-10T11:18:19.466Z,9504
2018-04-10T11:19:27.521Z,10916
2018-04-10T11:20:35.592Z,11024
2018-04-10T11:21:43.667Z,9464
2018-04-10T11:22:51.711Z,7780
2018-04-10T11:23:59.815Z,7140
2018-04-10T11:25:07.883Z,7788
2018-04-10T11:26:15.955Z,8564
2018-04-10T11:27:24.010Z,8300
2018-04-10T11:28:32.094Z,7424
2018-04-10T11:29:40.150Z,7620
2018-04-10T11:30:48.230Z,8172
2018-04-10T11:31:56.294Z,7776
2018-04-10T11:33:04.388Z,7136
2018-04-10T11:34:12.453Z,7184
2018-04-10T11:35:20.520Z,7576
2018-04-10T11:36:28.584Z,7656
2018-04-10T11:37:36.644Z,7892
2018-04-10T11:38:44.732Z,8496
2018-04-10T11:39:52.803Z,9156
2018-04-10T11:41:00.847Z,10024
2018-04-10T11:42:08.942Z,10564
2018-04-10T11:43:17.014Z,11128
2018-04-10T11:44:25.076Z,11752
2018-04-10T11:45:33.125Z,12108
2018-04-10T11:46:41.191Z,13004
2018-04-10T11:47:49.288Z,12656
2018-04-10T11:48:57.363Z,12400
2018-04-10T11:50:05.440Z,12268
2018-04-10T11:51:13.514Z,10944
2018-04-10T11:52:21.564Z,9820
2018-04-10T11:53:29.645Z,9304
2018-04-10T11:54:37.728Z,8544
2018-04-10T11:55:45.783Z,8316
2018-04-10T11:56:53.848Z,8616
2018-04-10T11:58:01.932Z,9728
2018-04-10T11:59:09.998Z,9644
2018-04-10T12:00:18.073Z,9024
2018-04-10T12:01:26.152Z,9612
2018-04-10T12:02:34.209Z,10640
2018-04-10T12:03:42.283Z,12060
2018-04-10T12:04:50.359Z,12152
2018-04-10T12:05:58.414Z,11672
2018-04-10T12:07:06.498Z,10120
2018-04-10T12:08:14.591Z,9436
2018-04-10T12:09:22.653Z,8512
2018-04-10T12:10:30.698Z,8268
2018-04-10T12:11:38.772Z,7864
2018-04-10T12:12:46.874Z,7536
2018-04-10T12:13:54.928Z,7140
2018-04-10T12:15:03.007Z,6508
2018-04-10T12:16:11.051Z,6304
2018-04-10T12:17:19.155Z,6304
2018-04-10T12:18:27.229Z,6848
2018-04-10T12:19:35.282Z,7124
2018-04-10T12:20:43.363Z,9040
2018-04-10T12:21:51.403Z,10260
2018-04-10T12:22:59.494Z,10884
2018-04-10T12:24:07.574Z,10892
2018-04-10T12:25:15.653Z,10524
2018-04-10T12:26:23.713Z,9372
2018-04-10T12:27:31.769Z,9360
2018-04-10T12:28:39.864Z,8996
2018-04-10T12:29:47.925Z,8948
2018-04-10T12:30:55.995Z,9200
2018-04-10T12:32:05.560Z,9188
2018-04-10T12:33:12.142Z,8928
2018-04-10T12:34:20.215Z,8424
2018-04-10T12:35:28.279Z,7872
2018-04-10T12:36:36.349Z,7544
2018-04-10T12:37:44.422Z,7388
2018-04-10T12:38:52.495Z,6608
2018-04-10T12:40:00.565Z,6572
2018-04-10T12:41:08.645Z,6624
2018-04-10T12:42:16.702Z,6720
2018-04-10T12:43:24.798Z,7072
2018-04-10T12:44:32.854Z,8260
2018-04-10T12:45:40.907Z,8756
2018-04-10T12:46:48.998Z,9292
2018-04-10T12:47:57.065Z,10152
2018-04-10T12:49:05.141Z,11276
2018-04-10T12:50:13.201Z,10996
2018-04-10T12:51:21.255Z,9836
2018-04-10T12:52:29.355Z,9168
2018-04-10T12:53:37.418Z,8324
2018-04-10T12:54:45.487Z,7580
2018-04-10T12:55:53.556Z,7160
2018-04-10T12:57:01.616Z,6992
2018-04-10T12:58:09.715Z,7056
2018-04-10T12:59:17.772Z,6968
2018-04-10T13:00:25.853Z,7000
2018-04-10T13:01:33.923Z,7324
2018-04-10T13:02:41.985Z,7540
2018-04-10T13:03:50.077Z,7624
2018-04-10T13:04:58.132Z,7604
2018-04-10T13:06:06.208Z,7344
2018-04-10T13:07:14.296Z,6584
2018-04-10T13:08:22.352Z,6104
2018-04-10T13:09:30.423Z,6128
2018-04-10T13:10:38.494Z,6096
2018-04-10T13:11:46.569Z,5964
2018-04-10T13:12:54.645Z,5756
2018-04-10T13:14:02.742Z,5356
2018-04-10T13:15:10.787Z,5204
2018-04-10T13:16:18.852Z,5084
2018-04-10T13:17:26.924Z,4992
2018-04-10T13:18:35.004Z,4904
2018-04-10T13:19:43.069Z,5116
2018-04-10T13:20:51.114Z,5576
2018-04-10T13:21:59.227Z,5460
2018-04-10T13:23:07.282Z,5136
2018-04-10T13:24:15.354Z,4944
2018-04-10T13:25:23.422Z,5504
2018-04-10T13:26:31.462Z,5544
2018-04-10T13:27:39.560Z,5596
2018-04-10T13:28:47.620Z,5320
2018-04-10T13:29:55.699Z,5236
2018-04-10T13:31:03.786Z,4892
2018-04-10T13:32:11.858Z,4884
2018-04-10T13:33:19.922Z,4856
2018-04-10T13:34:27.993Z,4840
2018-04-10T13:35:36.063Z,4608
2018-04-10T13:36:44.142Z,4524
2018-04-10T13:37:52.213Z,4400
2018-04-10T13:39:00.269Z,4108
2018-04-10T13:40:08.354Z,3956
2018-04-10T13:41:16.432Z,3912
2018-04-10T13:42:24.476Z,3964
2018-04-10T13:43:32.566Z,4184
2018-04-10T13:44:40.641Z,4556
2018-04-10T13:45:48.711Z,5076
2018-04-10T13:46:56.775Z,5492
2018-04-10T13:48:04.836Z,5796
2018-04-10T13:49:12.909Z,6188
2018-04-10T13:50:20.963Z,6136
2018-04-10T13:51:29.077Z,6044
2018-04-10T13:52:37.125Z,6052
2018-04-10T13:53:45.194Z,5864
2018-04-10T13:54:53.266Z,5736
2018-04-10T13:56:01.324Z,5504
2018-04-10T13:57:09.421Z,5632
2018-04-10T13:58:17.481Z,5988
2018-04-10T13:59:25.552Z,6264
2018-04-10T14:00:33.612Z,6444
2018-04-10T14:01:41.673Z,6724
2018-04-10T14:02:49.762Z,7096
2018-04-10T14:03:57.827Z,7780
2018-04-10T14:05:05.898Z,8260
2018-04-10T14:06:14.000Z,8512
2018-04-10T14:07:22.031Z,8464
2018-04-10T14:08:30.109Z,8320
2018-04-10T14:09:38.186Z,8336
2018-04-10T14:10:46.251Z,8276
2018-04-10T14:11:54.316Z,8452
2018-04-10T14:13:02.388Z,8660
2018-04-10T14:14:10.467Z,8624
2018-04-10T14:15:18.531Z,8696
2018-04-10T14:16:26.602Z,8712
2018-04-10T14:17:34.668Z,8720
2018-04-10T14:18:42.734Z,8776
2018-04-10T14:19:50.792Z,8780
2018-04-10T14:20:58.879Z,8688
2018-04-10T14:22:06.953Z,8568
2018-04-10T14:23:15.019Z,8468
2018-04-10T14:24:23.088Z,8276
2018-04-10T14:25:31.131Z,8036
2018-04-10T14:26:39.230Z,7816
2018-04-10T14:27:47.296Z,7668
2018-04-10T14:28:55.371Z,7676
2018-04-10T14:30:03.440Z,7720
2018-04-10T14:31:11.477Z,7868
2018-04-10T14:32:19.570Z,8140
2018-04-10T14:33:27.656Z,8540
2018-04-10T14:34:35.717Z,9096
2018-04-10T14:35:43.802Z,9744
2018-04-10T14:36:51.853Z,10368
2018-04-10T14:37:59.921Z,10940
2018-04-10T14:39:07.999Z,11348
2018-04-10T14:40:16.076Z,11592
2018-04-10T14:41:24.138Z,11636
2018-04-10T14:42:32.204Z,11496
2018-04-10T14:43:40.268Z,11324
2018-04-10T14:44:48.346Z,11108
2018-04-10T14:45:56.386Z,10968
2018-04-10T14:47:04.498Z,10916
2018-04-10T14:48:12.558Z,10976
2018-04-10T14:49:20.636Z,11004
2018-04-10T14:50:28.713Z,11108
2018-04-10T14:51:36.777Z,11288
2018-04-10T14:52:44.843Z,11488
2018-04-10T14:53:52.905Z,11576
2018-04-10T14:55:00.945Z,11576
2018-04-10T14:56:09.041Z,11476
2018-04-10T14:57:17.110Z,11456
2018-04-10T14:58:25.180Z,11468
2018-04-10T14:59:33.253Z,11156
2018-04-10T15:00:41.281Z,10900
2018-04-10T15:01:49.393Z,10652
2018-04-10T15:02:57.471Z,10600
2018-04-10T15:04:05.530Z,10404
2018-04-10T15:05:13.593Z,10540
2018-04-10T15:06:21.637Z,10660
2018-04-10T15:07:29.759Z,10700
2018-04-10T15:08:37.800Z,10868
2018-04-10T15:09:45.884Z,10748
2018-04-10T15:10:53.940Z,10620
2018-04-10T15:12:02.009Z,10808
2018-04-10T15:13:10.096Z,10812
2018-04-10T15:14:18.165Z,10824
2018-04-10T15:15:26.228Z,10672
2018-04-10T15:16:34.305Z,10908
2018-04-10T15:17:42.355Z,11044
2018-04-10T15:18:50.436Z,10820
2018-04-10T15:19:58.494Z,10880
2018-04-10T15:21:06.556Z,10540
2018-04-10T15:22:14.683Z,10600
2018-04-10T15:23:22.710Z,10312
2018-04-10T15:24:30.772Z,9860
2018-04-10T15:25:38.829Z,9692
2018-04-10T15:26:46.912Z,9648